Time+07,TemperatureF,Dew PointF,Humidity,Sea Level PressureIn,VisibilityMPH,Wind Direction,Wind SpeedMPH,Gust SpeedMPH,PrecipitationIn,Events,Conditions,WindDirDegrees,DateUTC
1:00 AM,74,69,81,29.89,6,Calm,Calm,,,,,,2013-11-24 18:00:00
1:30 AM,71.6,68.0,88,29.92,6.2,WSW,3.5,-,N/A,,Partly Cloudy,250,2013-11-24 18:30:00
2:00 AM,71.6,68.0,88,29.92,6.2,WSW,3.5,-,N/A,,Partly Cloudy,250,2013-11-24 19:00:00
3:00 AM,71.6,68.0,88,29.92,6.2,Calm,Calm,-,N/A,,Partly Cloudy,0,2013-11-24 20:00:00
3:30 AM,71.6,68.0,88,29.92,6.2,South,1.2,-,N/A,,Partly Cloudy,190,2013-11-24 20:30:00
4:00 AM,72,69,87,29.88,6,Calm,Calm,,,,,,2013-11-24 21:00:00
4:00 AM,71.6,68.0,88,29.92,6.2,Calm,Calm,-,N/A,,Partly Cloudy,0,2013-11-24 21:00:00
4:30 AM,71.6,68.0,88,29.92,6.2,Calm,Calm,-,N/A,,Partly Cloudy,0,2013-11-24 21:30:00
5:00 AM,71.6,68.0,88,29.92,6.2,Calm,Calm,-,N/A,,Partly Cloudy,0,2013-11-24 22:00:00
5:30 AM,71.6,68.0,88,29.92,6.2,SSW,2.3,-,N/A,,Partly Cloudy,200,2013-11-24 22:30:00
6:00 AM,71.6,68.0,88,29.95,6.2,Calm,Calm,-,N/A,,Partly Cloudy,0,2013-11-24 23:00:00
6:30 AM,69.8,68.0,94,29.95,6.2,NW,2.3,-,N/A,,Partly Cloudy,310,2013-11-24 23:30:00
7:00 AM,71,69,92,29.93,6,Calm,Calm,,,,Scattered Clouds,,2013-11-25 00:00:00
7:00 AM,69.8,68.0,94,29.95,6.2,Calm,Calm,-,N/A,,Partly Cloudy,0,2013-11-25 00:00:00
7:30 AM,71.6,68.0,88,29.95,6.2,WSW,2.3,-,N/A,,Partly Cloudy,250,2013-11-25 00:30:00
8:00 AM,73.4,68.0,83,29.98,6.2,Calm,Calm,-,N/A,,Partly Cloudy,0,2013-11-25 01:00:00
8:30 AM,75.2,68.0,78,29.98,6.2,Calm,Calm,-,N/A,,Partly Cloudy,0,2013-11-25 01:30:00
9:00 AM,75.2,68.0,78,29.98,6.2,Calm,Calm,-,N/A,,Partly Cloudy,0,2013-11-25 02:00:00
9:30 AM,77.0,68.0,74,29.98,6.2,SW,3.5,-,N/A,,Partly Cloudy,230,2013-11-25 02:30:00
10:00 AM,82,71,62,29.91,6,North,4.6,,,,Scattered Clouds,0,2013-11-25 03:00:00
10:00 AM,80.6,68.0,65,29.98,6.2,NE,2.3,-,N/A,,Scattered Clouds,40,2013-11-25 03:00:00
10:30 AM,80.6,68.0,65,29.98,6.2,Calm,Calm,-,N/A,,Scattered Clouds,0,2013-11-25 03:30:00
11:00 AM,82.4,68.0,62,29.95,6.2,South,4.6,-,N/A,,Scattered Clouds,190,2013-11-25 04:00:00
11:30 AM,82.4,69.8,66,29.95,6.2,SSW,6.9,-,N/A,,Scattered Clouds,200,2013-11-25 04:30:00
12:00 PM,82.4,68.0,62,29.92,6.2,SSW,6.9,-,N/A,,Scattered Clouds,210,2013-11-25 05:00:00
12:30 PM,84.2,66.2,55,29.92,6.2,SW,4.6,-,N/A,,Scattered Clouds,220,2013-11-25 05:30:00
1:00 PM,88,70,47,29.83,7,South,8.1,,,,Scattered Clouds,180,2013-11-25 06:00:00
1:00 PM,86.0,66.2,51,29.89,6.2,SW,8.1,-,N/A,,Scattered Clouds,230,2013-11-25 06:00:00
1:30 PM,86.0,66.2,51,29.86,6.2,SSW,6.9,-,N/A,,Scattered Clouds,200,2013-11-25 06:30:00
2:00 PM,86.0,64.4,48,29.86,6.2,South,6.9,-,N/A,,Scattered Clouds,190,2013-11-25 07:00:00
2:30 PM,86.0,66.2,51,29.83,6.2,South,6.9,-,N/A,,Scattered Clouds,190,2013-11-25 07:30:00
3:00 PM,86.0,66.2,51,29.83,6.2,SSW,8.1,-,N/A,,Scattered Clouds,200,2013-11-25 08:00:00
3:30 PM,86.0,66.2,51,29.83,6.2,SW,6.9,-,N/A,,Scattered Clouds,230,2013-11-25 08:30:00
4:00 PM,89,71,47,29.75,7,SW,3.5,,,,Scattered Clouds,230,2013-11-25 09:00:00
4:00 PM,86.0,66.2,51,29.83,6.2,South,8.1,-,N/A,,Scattered Clouds,170,2013-11-25 09:00:00
4:30 PM,86.0,66.2,51,29.83,6.2,SW,8.1,-,N/A,,Scattered Clouds,220,2013-11-25 09:30:00
5:00 PM,84.2,66.2,55,29.83,6.2,SSW,6.9,-,N/A,,Scattered Clouds,210,2013-11-25 10:00:00
5:30 PM,84.2,68.0,58,29.83,6.2,WSW,4.6,-,N/A,,Scattered Clouds,240,2013-11-25 10:30:00
6:00 PM,82.4,68.0,62,29.83,6.2,West,4.6,-,N/A,,Scattered Clouds,260,2013-11-25 11:00:00
6:30 PM,80.6,69.8,70,29.86,6.2,West,3.5,-,N/A,,Scattered Clouds,260,2013-11-25 11:30:00
7:00 PM,83,72,63,29.79,6,Calm,Calm,,,,Scattered Clouds,,2013-11-25 12:00:00
7:00 PM,80.6,69.8,70,29.86,6.2,SSW,3.5,-,N/A,,Scattered Clouds,200,2013-11-25 12:00:00
7:30 PM,80.6,68.0,65,29.86,6.2,South,5.8,-,N/A,,Scattered Clouds,170,2013-11-25 12:30:00
8:00 PM,80.6,69.8,70,29.89,6.2,SSW,4.6,-,N/A,,Scattered Clouds,210,2013-11-25 13:00:00
8:30 PM,80.6,69.8,70,29.89,6.2,SW,4.6,-,N/A,,Scattered Clouds,230,2013-11-25 13:30:00
9:00 PM,78.8,69.8,74,29.89,6.2,WSW,3.5,-,N/A,,Scattered Clouds,250,2013-11-25 14:00:00
9:30 PM,78.8,69.8,74,29.89,6.2,SW,3.5,-,N/A,,Scattered Clouds,220,2013-11-25 14:30:00
10:00 PM,79,73,78,29.85,6,Calm,Calm,,,,Scattered Clouds,,2013-11-25 15:00:00
10:00 PM,78.8,69.8,74,29.92,6.2,SSE,3.5,-,N/A,,Scattered Clouds,160,2013-11-25 15:00:00
10:30 PM,78.8,69.8,74,29.92,6.2,South,3.5,-,N/A,,Partly Cloudy,180,2013-11-25 15:30:00
11:00 PM,77.0,69.8,78,29.92,6.2,SW,2.3,-,N/A,,Partly Cloudy,230,2013-11-25 16:00:00
11:30 PM,77.0,69.8,78,29.92,6.2,SSW,2.3,-,N/A,,Partly Cloudy,210,2013-11-25 16:30:00